Time;durP1;ratioP1;P1;durP2;ratioP2;P2;SDS_P1;SDS_P2;PMS_P1;PMS_P2;Temp;Humidity;BMP_temperature;BMP_pressure;BME280_temperature;BME280_humidity;BME280_pressure;Samples;Min_cycle;Max_cycle;Signal;HPM_P1;HPM_P2
2021/08/24 00:00:49;;;;;;;5.47;1.90;;;15.70;99.90;;;;;;5064017;28;20039;-79
2021/08/24 00:03:15;;;;;;;2.97;1.48;;;15.60;99.90;;;;;;5063797;28;20086;-78
2021/08/24 00:05:40;;;;;;;2.63;1.50;;;15.70;99.90;;;;;;5080613;28;20021;-78
2021/08/24 00:08:07;;;;;;;3.83;1.60;;;15.60;99.90;;;;;;5080755;28;20057;-78
2021/08/24 00:10:40;;;;;;;2.55;1.35;;;15.70;99.90;;;;;;5080600;28;20029;-78
2021/08/24 00:13:09;;;;;;;12.85;1.90;;;15.60;99.90;;;;;;5080555;28;20052;-77
2021/08/24 00:15:37;;;;;;;2.28;1.00;;;15.60;99.90;;;;;;5064019;28;20032;-80
2021/08/24 00:18:04;;;;;;;3.33;1.63;;;15.60;99.90;;;;;;5064803;28;20061;-79
2021/08/24 00:20:32;;;;;;;11.82;1.83;;;15.60;99.90;;;;;;5065261;28;20025;-78
2021/08/24 00:23:08;;;;;;;4.05;1.55;;;15.60;99.90;;;;;;5063765;28;20101;-78
2021/08/24 00:25:35;;;;;;;2.20;1.38;;;15.60;99.90;;;;;;5080493;28;20025;-80
2021/08/24 00:28:10;;;;;;;6.53;1.38;;;15.50;99.90;;;;;;5064156;28;20036;-80
2021/08/24 00:30:40;;;;;;;2.78;1.63;;;15.50;99.90;;;;;;5062826;28;20029;-79
2021/08/24 00:33:08;;;;;;;3.38;1.58;;;15.70;99.90;;;;;;5064617;28;20063;-80
2021/08/24 00:35:38;;;;;;;3.13;1.48;;;15.50;99.90;;;;;;5064738;28;20524;-79
2021/08/24 00:38:07;;;;;;;3.03;1.45;;;15.50;99.90;;;;;;5062548;28;20100;-79
2021/08/24 00:40:34;;;;;;;4.60;1.45;;;15.50;99.90;;;;;;5064682;28;20029;-78
2021/08/24 00:43:08;;;;;;;1.75;1.30;;;15.50;99.90;;;;;;5064663;28;20045;-78
2021/08/24 00:45:40;;;;;;;3.13;1.63;;;15.50;99.90;;;;;;5079882;28;20029;-78
2021/08/24 00:48:11;;;;;;;2.50;1.50;;;15.40;99.90;;;;;;5064490;28;20102;-80
2021/08/24 00:50:43;;;;;;;3.88;1.65;;;15.40;99.90;;;;;;5064094;28;20029;-80
2021/08/24 00:53:12;;;;;;;4.07;1.67;;;15.40;99.90;;;;;;5063176;28;20035;-78
2021/08/24 00:55:43;;;;;;;3.25;1.63;;;15.30;99.90;;;;;;5064587;28;20021;-78
2021/08/24 00:58:12;;;;;;;2.88;1.30;;;15.20;99.90;;;;;;5064060;28;20036;-79
2021/08/24 01:00:39;;;;;;;3.67;2.03;;;15.20;99.90;;;;;;5079451;28;20496;-77
2021/08/24 01:03:38;;;;;;;4.72;1.70;;;15.20;99.90;;;;;;5064164;28;20064;-77
2021/08/24 01:06:16;;;;;;;5.05;1.65;;;15.20;99.90;;;;;;5064627;28;20032;-79
2021/08/24 01:09:12;;;;;;;2.17;1.48;;;15.20;99.90;;;;;;5064630;28;20079;-78
2021/08/24 01:11:47;;;;;;;4.38;1.50;;;15.20;99.90;;;;;;5079882;28;20032;-79
2021/08/24 01:14:39;;;;;;;3.10;1.33;;;15.10;99.90;;;;;;5064497;28;20021;-78
2021/08/24 01:17:16;;;;;;;10.43;2.08;;;15.10;99.90;;;;;;5055286;28;20091;-77
2021/08/24 01:19:59;;;;;;;3.80;1.75;;;15.10;99.90;;;;;;5064201;28;20032;-77
2021/08/24 01:22:37;;;;;;;3.30;1.80;;;15.00;99.90;;;;;;5062962;28;20048;-77
2021/08/24 01:25:13;;;;;;;2.40;1.50;;;15.10;99.90;;;;;;5063956;28;20029;-78
2021/08/24 01:27:48;;;;;;;3.80;1.63;;;15.00;99.90;;;;;;5063993;28;20025;-79
2021/08/24 01:30:48;;;;;;;10.82;1.90;;;15.10;99.90;;;;;;5062845;28;20052;-77
2021/08/24 01:33:54;;;;;;;3.78;2.10;;;15.00;99.90;;;;;;5064391;28;20021;-77
2021/08/24 01:36:45;;;;;;;3.95;1.60;;;14.90;99.90;;;;;;5073548;28;20033;-77
2021/08/24 01:39:21;;;;;;;2.83;1.80;;;14.90;99.90;;;;;;5062664;28;20036;-77
2021/08/24 01:42:12;;;;;;;2.40;1.52;;;14.90;99.90;;;;;;5064355;28;20033;-76
2021/08/24 01:45:06;;;;;;;4.85;1.80;;;14.80;99.90;;;;;;5062788;28;20085;-78
2021/08/24 01:47:49;;;;;;;5.50;2.22;;;14.80;99.90;;;;;;5054354;28;20040;-79
2021/08/24 01:50:32;;;;;;;4.10;1.65;;;14.80;99.90;;;;;;5064482;28;20025;-78
2021/08/24 01:53:19;;;;;;;5.65;2.28;;;14.70;99.90;;;;;;5068255;28;20036;-77
2021/08/24 01:55:51;;;;;;;4.10;1.83;;;14.60;99.90;;;;;;5083094;28;20039;-78
2021/08/24 01:58:30;;;;;;;2.45;1.80;;;14.70;99.90;;;;;;5067729;28;20032;-79
2021/08/24 02:01:03;;;;;;;3.85;1.52;;;14.60;99.90;;;;;;5067880;28;20386;-80
2021/08/24 02:03:38;;;;;;;4.55;1.65;;;14.50;99.90;;;;;;5067850;28;20033;-78
2021/08/24 02:06:24;;;;;;;3.40;2.03;;;14.50;99.90;;;;;;5066517;28;20055;-78
2021/08/24 02:08:55;;;;;;;7.93;1.95;;;14.50;99.90;;;;;;5067577;28;20025;-78
2021/08/24 02:11:22;;;;;;;5.30;1.90;;;14.50;99.90;;;;;;5067633;28;20040;-78
2021/08/24 02:13:50;;;;;;;8.98;1.85;;;14.50;99.90;;;;;;5067425;28;20088;-78
2021/08/24 02:16:23;;;;;;;13.90;1.73;;;14.50;99.90;;;;;;5065641;28;20421;-79
2021/08/24 02:19:04;;;;;;;3.00;1.98;;;14.40;99.90;;;;;;5067225;28;20025;-79
2021/08/24 02:22:02;;;;;;;13.73;2.20;;;14.40;99.90;;;;;;5067282;28;20063;-77
2021/08/24 02:24:36;;;;;;;4.03;1.77;;;14.40;99.90;;;;;;5062623;28;20032;-79
2021/08/24 02:27:10;;;;;;;3.08;1.70;;;14.40;99.90;;;;;;5067701;28;20032;-79
2021/08/24 02:29:37;;;;;;;5.43;2.03;;;14.40;99.90;;;;;;5067485;28;20029;-79
2021/08/24 02:32:09;;;;;;;4.43;2.28;;;14.40;99.90;;;;;;5067131;28;20028;-79
2021/08/24 02:35:07;;;;;;;2.28;1.60;;;14.40;99.90;;;;;;5082605;28;20021;-80
2021/08/24 02:37:46;;;;;;;6.93;2.00;;;14.30;99.90;;;;;;5082663;28;20033;-79
2021/08/24 02:40:26;;;;;;;6.25;1.90;;;14.30;99.90;;;;;;5065571;28;20482;-79
2021/08/24 02:43:07;;;;;;;1.98;1.42;;;14.30;99.90;;;;;;5065418;28;20029;-80
2021/08/24 02:45:40;;;;;;;3.25;1.88;;;14.20;99.90;;;;;;5082166;28;20100;-79
2021/08/24 02:48:12;;;;;;;4.82;2.15;;;14.30;99.90;;;;;;5081992;28;20028;-79
2021/08/24 02:50:40;;;;;;;2.45;1.50;;;14.10;99.90;;;;;;5082384;28;20039;-78
2021/08/24 02:53:05;;;;;;;3.65;2.10;;;14.20;99.90;;;;;;5066856;28;20028;-79
2021/08/24 02:55:32;;;;;;;2.25;1.48;;;14.10;99.90;;;;;;5082211;28;20025;-79
2021/08/24 02:57:57;;;;;;;2.60;1.83;;;14.10;99.90;;;;;;5065452;28;20036;-80
2021/08/24 03:00:23;;;;;;;2.67;1.55;;;14.20;99.90;;;;;;5081765;28;20052;-80
2021/08/24 03:02:49;;;;;;;2.55;1.92;;;14.10;99.90;;;;;;5080511;28;20119;-79
2021/08/24 03:05:15;;;;;;;5.05;2.30;;;14.10;99.90;;;;;;5066454;28;20029;-80
2021/08/24 03:07:41;;;;;;;5.05;2.20;;;14.00;99.90;;;;;;5065207;28;20033;-77
2021/08/24 03:10:15;;;;;;;4.07;1.65;;;14.00;99.90;;;;;;5066265;28;20071;-78
2021/08/24 03:12:46;;;;;;;7.28;2.03;;;14.00;99.90;;;;;;5066273;28;20029;-79
2021/08/24 03:15:42;;;;;;;3.92;2.20;;;14.00;99.90;;;;;;5065069;28;20029;-80
2021/08/24 03:18:26;;;;;;;11.95;2.25;;;14.00;99.90;;;;;;5080632;28;20569;-79
2021/08/24 03:20:57;;;;;;;4.10;1.98;;;13.90;99.90;;;;;;5064763;28;20029;-80
2021/08/24 03:23:26;;;;;;;2.75;2.03;;;13.80;99.90;;;;;;5065606;28;20156;-78
2021/08/24 03:25:53;;;;;;;3.88;2.45;;;13.90;99.90;;;;;;5064201;28;20028;-78
2021/08/24 03:28:21;;;;;;;3.22;1.65;;;13.90;99.90;;;;;;5065707;28;20029;-80
2021/08/24 03:30:50;;;;;;;3.40;2.10;;;13.90;99.90;;;;;;5065765;28;20041;-77
2021/08/24 03:33:16;;;;;;;3.42;1.75;;;13.80;99.90;;;;;;5065939;28;20131;-79
2021/08/24 03:35:42;;;;;;;3.63;2.35;;;13.80;99.90;;;;;;5065861;28;20033;-78
2021/08/24 03:38:08;;;;;;;8.85;2.85;;;13.60;99.90;;;;;;5065734;28;20037;-78
2021/08/24 03:40:37;;;;;;;3.92;2.08;;;13.70;99.90;;;;;;5065731;28;20037;-78
2021/08/24 03:43:04;;;;;;;3.65;2.38;;;13.60;99.90;;;;;;5065624;28;20067;-79
2021/08/24 03:45:30;;;;;;;5.45;2.63;;;13.70;99.90;;;;;;5064476;28;20025;-78
2021/08/24 03:47:56;;;;;;;4.35;1.90;;;13.60;99.90;;;;;;5065909;28;20097;-77
2021/08/24 03:50:22;;;;;;;6.10;2.72;;;13.60;99.90;;;;;;5064197;28;20029;-76
2021/08/24 03:52:49;;;;;;;5.45;2.70;;;13.60;99.90;;;;;;5064139;28;20033;-79
2021/08/24 03:55:16;;;;;;;4.60;2.55;;;13.60;99.90;;;;;;5065379;28;20021;-78
2021/08/24 03:57:47;;;;;;;5.20;2.15;;;13.60;99.90;;;;;;5065584;28;20066;-81
2021/08/24 04:00:14;;;;;;;4.22;2.60;;;13.50;99.90;;;;;;5065525;28;20025;-77
2021/08/24 04:02:39;;;;;;;4.68;2.50;;;13.50;99.90;;;;;;5063893;28;20405;-78
2021/08/24 04:05:06;;;;;;;9.30;2.67;;;13.50;99.90;;;;;;5065318;28;20025;-80
2021/08/24 04:07:32;;;;;;;5.32;2.38;;;13.50;99.90;;;;;;5063764;28;20028;-79
2021/08/24 04:09:58;;;;;;;7.78;3.00;;;13.50;99.90;;;;;;5065394;28;20051;-78
2021/08/24 04:12:24;;;;;;;7.40;2.17;;;13.40;99.90;;;;;;5065232;28;20017;-78
2021/08/24 04:14:50;;;;;;;4.35;2.30;;;13.40;99.90;;;;;;5064924;28;20041;-79
2021/08/24 04:17:16;;;;;;;3.28;1.75;;;13.40;99.90;;;;;;5064744;28;20079;-79
2021/08/24 04:19:47;;;;;;;16.23;2.40;;;13.40;99.90;;;;;;5064935;28;20028;-79
2021/08/24 04:22:19;;;;;;;3.28;2.22;;;13.40;99.90;;;;;;5063647;28;20052;-80
2021/08/24 04:24:45;;;;;;;5.65;2.83;;;13.40;99.90;;;;;;5063517;28;20032;-78
2021/08/24 04:27:10;;;;;;;5.90;2.97;;;13.40;99.90;;;;;;5064825;28;20029;-80
2021/08/24 04:29:36;;;;;;;8.95;3.15;;;13.40;99.90;;;;;;5064781;28;20033;-80
2021/08/24 04:32:06;;;;;;;6.15;2.67;;;13.40;99.90;;;;;;5064897;28;20029;-80
2021/08/24 04:34:33;;;;;;;5.80;2.60;;;13.40;99.90;;;;;;5063495;28;20029;-82
2021/08/24 04:37:01;;;;;;;5.10;2.42;;;13.30;99.90;;;;;;5063692;28;20049;-79
2021/08/24 04:39:26;;;;;;;6.03;2.83;;;13.30;99.90;;;;;;5063595;28;20036;-80
2021/08/24 04:41:52;;;;;;;4.35;2.40;;;13.30;99.90;;;;;;5063363;28;20143;-80
2021/08/24 04:44:18;;;;;;;11.15;3.03;;;13.30;99.90;;;;;;5064744;28;20032;-80
2021/08/24 04:46:43;;;;;;;9.35;3.15;;;13.30;99.90;;;;;;5063352;28;20033;-79
2021/08/24 04:49:11;;;;;;;3.95;2.50;;;13.30;99.90;;;;;;5063044;28;20021;-83
2021/08/24 04:51:37;;;;;;;7.20;3.00;;;13.30;99.90;;;;;;5063209;28;20096;-81
2021/08/24 04:54:02;;;;;;;5.93;2.70;;;13.30;99.90;;;;;;5063321;28;20021;-81
2021/08/24 04:56:29;;;;;;;8.82;2.80;;;13.30;99.90;;;;;;5064783;28;20115;-78
2021/08/24 04:58:55;;;;;;;6.72;2.88;;;13.30;99.90;;;;;;5063248;28;20044;-80
2021/08/24 05:01:20;;;;;;;6.80;2.85;;;13.30;99.90;;;;;;5063088;28;20033;-81
2021/08/24 05:03:46;;;;;;;7.18;2.92;;;13.30;99.90;;;;;;5064233;28;20051;-79
2021/08/24 05:06:11;;;;;;;6.72;3.03;;;13.40;99.90;;;;;;5063165;28;20040;-79
2021/08/24 05:08:37;;;;;;;5.95;2.55;;;13.40;99.90;;;;;;5064390;28;20393;-76
2021/08/24 05:11:10;;;;;;;5.68;2.65;;;13.40;99.90;;;;;;5059796;28;20021;-77
2021/08/24 05:13:35;;;;;;;4.60;2.90;;;13.40;99.90;;;;;;5064281;28;20033;-78
2021/08/24 05:16:07;;;;;;;6.10;2.85;;;13.40;99.90;;;;;;5059817;28;20025;-79
2021/08/24 05:18:33;;;;;;;11.10;3.15;;;13.40;99.90;;;;;;5043157;28;20046;-78
2021/08/24 05:21:13;;;;;;;4.15;2.58;;;13.40;99.90;;;;;;5044402;28;20025;-79
2021/08/24 05:23:40;;;;;;;3.15;2.47;;;13.50;99.90;;;;;;5044242;28;20029;-79
2021/08/24 05:26:11;;;;;;;4.38;2.67;;;13.50;99.90;;;;;;5046144;28;20107;-78
2021/08/24 05:28:37;;;;;;;4.80;2.85;;;13.40;99.90;;;;;;5047133;28;20029;-80
2021/08/24 05:31:03;;;;;;;7.03;3.20;;;13.50;99.90;;;;;;5063565;28;20025;-79
2021/08/24 05:33:32;;;;;;;4.50;2.80;;;13.60;99.90;;;;;;5048219;28;20025;-79
2021/08/24 05:36:00;;;;;;;11.50;2.92;;;13.60;99.90;;;;;;5047685;28;20044;-79
2021/08/24 05:38:28;;;;;;;6.20;2.70;;;13.60;99.90;;;;;;5058954;28;20017;-78
2021/08/24 05:40:55;;;;;;;18.27;3.28;;;13.60;99.90;;;;;;5056907;28;20669;-78
2021/08/24 05:43:23;;;;;;;6.30;2.55;;;13.70;99.90;;;;;;5060283;28;20130;-78
2021/08/24 05:46:15;;;;;;;5.30;2.65;;;13.70;99.90;;;;;;5067560;28;20045;-78
2021/08/24 05:48:42;;;;;;;12.07;3.22;;;13.70;99.90;;;;;;5067455;28;20037;-78
2021/08/24 05:51:13;;;;;;;4.95;2.72;;;13.80;99.90;;;;;;5066586;28;20144;-78
2021/08/24 05:53:39;;;;;;;4.82;2.60;;;13.80;99.90;;;;;;5066214;28;20025;-79
2021/08/24 05:56:14;;;;;;;7.05;3.30;;;13.70;99.90;;;;;;5066500;28;20032;-77
2021/08/24 05:58:40;;;;;;;6.80;3.00;;;13.90;99.90;;;;;;5067030;28;20088;-78
2021/08/24 06:01:16;;;;;;;6.55;2.72;;;13.90;99.90;;;;;;5074132;28;20523;-78
2021/08/24 06:03:41;;;;;;;3.83;2.42;;;13.90;99.90;;;;;;5067436;28;20093;-78
2021/08/24 06:06:07;;;;;;;5.47;2.58;;;14.00;99.90;;;;;;5065789;28;20029;-78
2021/08/24 06:08:42;;;;;;;6.40;3.10;;;14.00;99.90;;;;;;5071392;28;20037;-78
2021/08/24 06:11:24;;;;;;;5.28;2.33;;;14.10;99.90;;;;;;5068813;28;20021;-77
2021/08/24 06:13:50;;;;;;;5.30;2.90;;;14.10;99.90;;;;;;5067276;28;20064;-78
2021/08/24 06:16:16;;;;;;;5.68;2.65;;;14.20;99.90;;;;;;5078327;28;20080;-78
2021/08/24 06:18:46;;;;;;;5.70;2.50;;;14.20;99.90;;;;;;5045935;28;20032;-78
2021/08/24 06:21:13;;;;;;;5.88;2.33;;;14.30;99.90;;;;;;5054977;28;20056;-78
2021/08/24 06:23:47;;;;;;;5.45;2.55;;;14.30;99.90;;;;;;5081554;28;20045;-78
2021/08/24 06:26:12;;;;;;;5.20;2.45;;;14.30;99.90;;;;;;5066888;28;20055;-79
2021/08/24 06:28:38;;;;;;;5.15;2.45;;;14.40;99.90;;;;;;5066851;28;20024;-79
2021/08/24 06:31:06;;;;;;;9.75;3.13;;;14.50;99.90;;;;;;5066749;28;20029;-79
2021/08/24 06:33:36;;;;;;;3.63;2.30;;;14.50;99.90;;;;;;5066634;28;20025;-79
2021/08/24 06:36:03;;;;;;;2.47;1.75;;;14.60;99.90;;;;;;5065800;28;20048;-77
2021/08/24 06:38:33;;;;;;;7.55;2.25;;;14.60;99.90;;;;;;5067163;28;20032;-78
2021/08/24 06:41:02;;;;;;;6.03;2.58;;;14.70;99.90;;;;;;5065783;28;20028;-79
2021/08/24 06:43:30;;;;;;;4.13;2.25;;;14.80;99.90;;;;;;5082404;28;20037;-78
2021/08/24 06:45:56;;;;;;;3.50;2.10;;;14.80;99.90;;;;;;5067724;28;20036;-79
2021/08/24 06:48:22;;;;;;;11.55;5.55;;;14.90;99.90;;;;;;5067809;28;20029;-79
2021/08/24 06:50:48;;;;;;;2.28;1.67;;;15.00;99.90;;;;;;5075052;28;20036;-78
2021/08/24 06:53:20;;;;;;;3.58;2.03;;;15.00;99.90;;;;;;5058860;28;20084;-79
2021/08/24 06:55:48;;;;;;;3.40;1.73;;;15.10;99.90;;;;;;5066379;28;20074;-78
2021/08/24 06:58:14;;;;;;;4.47;2.00;;;15.10;99.90;;;;;;5064748;28;20025;-78
2021/08/24 07:00:40;;;;;;;4.32;2.05;;;15.20;99.90;;;;;;5050703;28;20021;-77
2021/08/24 07:03:09;;;;;;;3.20;2.00;;;15.40;99.90;;;;;;5065590;28;20094;-78
2021/08/24 07:05:41;;;;;;;2.42;1.60;;;15.40;99.90;;;;;;5067276;28;20025;-77
2021/08/24 07:08:08;;;;;;;4.10;2.00;;;15.40;99.90;;;;;;5065696;28;20044;-79
2021/08/24 07:10:37;;;;;;;4.43;1.92;;;15.50;99.90;;;;;;5065526;28;20037;-79
2021/08/24 07:13:02;;;;;;;2.13;1.52;;;15.60;99.90;;;;;;5067039;28;20029;-79
2021/08/24 07:15:32;;;;;;;4.15;1.73;;;15.60;99.90;;;;;;5065149;28;20056;-78
2021/08/24 07:18:00;;;;;;;2.17;1.60;;;15.70;99.90;;;;;;5066885;28;20096;-80
2021/08/24 07:20:25;;;;;;;2.85;1.63;;;15.80;99.90;;;;;;5065265;28;20094;-78
2021/08/24 07:22:52;;;;;;;2.92;1.40;;;15.90;99.90;;;;;;5063533;28;20116;-79
2021/08/24 07:25:23;;;;;;;5.43;1.73;;;16.00;99.90;;;;;;5045106;28;20093;-79
2021/08/24 07:27:49;;;;;;;3.75;1.65;;;16.10;99.90;;;;;;5045575;28;20025;-78
2021/08/24 07:30:15;;;;;;;5.95;1.95;;;16.00;99.90;;;;;;5046469;28;20018;-77
2021/08/24 07:32:41;;;;;;;2.42;1.27;;;16.30;99.90;;;;;;5057936;28;20374;-78
2021/08/24 07:35:14;;;;;;;3.33;1.35;;;16.20;99.90;;;;;;5065106;28;20032;-78
2021/08/24 07:37:40;;;;;;;4.80;1.57;;;16.30;99.90;;;;;;5066256;28;20029;-78
2021/08/24 07:40:09;;;;;;;2.80;1.42;;;16.30;99.90;;;;;;5066054;28;20502;-77
2021/08/24 07:42:35;;;;;;;3.78;1.20;;;16.40;99.90;;;;;;5065821;28;20082;-78
2021/08/24 07:45:02;;;;;;;5.72;1.40;;;16.50;99.90;;;;;;5080023;28;20531;-78
2021/08/24 07:47:28;;;;;;;3.05;1.63;;;16.60;99.90;;;;;;5065649;28;20041;-78
2021/08/24 07:49:54;;;;;;;2.95;1.63;;;16.70;99.90;;;;;;5063912;28;20120;-76
2021/08/24 07:52:20;;;;;;;2.22;1.38;;;16.80;99.90;;;;;;5064627;28;20054;-79
2021/08/24 07:54:46;;;;;;;5.28;1.65;;;16.90;99.90;;;;;;5065674;28;20025;-76
2021/08/24 07:57:11;;;;;;;2.47;1.15;;;17.10;99.90;;;;;;5065273;28;20100;-78
2021/08/24 07:59:37;;;;;;;2.67;1.50;;;17.10;99.90;;;;;;5065845;28;20029;-79
2021/08/24 08:02:20;;;;;;;3.90;1.50;;;17.20;99.90;;;;;;5064648;28;20124;-80
2021/08/24 08:04:45;;;;;;;1.58;0.85;;;17.30;99.90;;;;;;5048437;28;20060;-76
2021/08/24 08:07:12;;;;;;;1.90;1.00;;;17.40;99.90;;;;;;5063236;28;20029;-79
2021/08/24 08:09:37;;;;;;;4.55;1.00;;;17.40;99.90;;;;;;5065989;28;20024;-79
2021/08/24 08:12:03;;;;;;;2.35;1.13;;;17.40;99.90;;;;;;5057254;28;20033;-79
2021/08/24 08:14:30;;;;;;;3.20;0.95;;;17.50;99.90;;;;;;5062407;28;20025;-79
2021/08/24 08:16:56;;;;;;;1.58;1.05;;;17.40;99.90;;;;;;5054507;28;20047;-78
2021/08/24 08:19:21;;;;;;;1.80;0.82;;;17.60;99.90;;;;;;5054900;28;20040;-78
2021/08/24 08:21:47;;;;;;;7.35;1.13;;;17.70;99.90;;;;;;5054930;28;20033;-78
2021/08/24 08:24:12;;;;;;;2.10;0.77;;;17.80;99.90;;;;;;5056777;28;20029;-78
2021/08/24 08:26:39;;;;;;;1.48;1.02;;;17.90;99.90;;;;;;5050103;28;20028;-80
2021/08/24 08:29:09;;;;;;;2.47;0.93;;;18.10;99.90;;;;;;5055392;28;20089;-77
2021/08/24 08:31:40;;;;;;;2.10;0.85;;;18.20;99.90;;;;;;5045825;28;20033;-78
2021/08/24 08:34:10;;;;;;;1.90;0.73;;;18.30;99.90;;;;;;5045681;28;20029;-79
2021/08/24 08:36:40;;;;;;;4.53;1.40;;;18.40;99.90;;;;;;5043569;28;20106;-78
2021/08/24 08:39:07;;;;;;;2.40;1.05;;;18.60;99.90;;;;;;5044100;28;20029;-81
2021/08/24 08:42:12;;;;;;;1.98;0.82;;;18.70;99.90;;;;;;5045041;28;20038;-77
2021/08/24 08:44:52;;;;;;;0.90;0.60;;;18.80;99.90;;;;;;5048430;28;20029;-78
2021/08/24 08:47:55;;;;;;;3.78;1.08;;;19.00;99.90;;;;;;5050136;28;20037;-76
2021/08/24 08:50:22;;;;;;;2.28;1.00;;;19.10;99.90;;;;;;5043583;28;20036;-77
2021/08/24 08:53:03;;;;;;;2.60;1.20;;;19.20;99.90;;;;;;5043801;28;20033;-80
2021/08/24 08:55:44;;;;;;;1.33;0.82;;;19.20;99.90;;;;;;5060900;28;20119;-79
2021/08/24 08:58:32;;;;;;;4.20;1.15;;;19.40;99.90;;;;;;5064046;28;20031;-80
2021/08/24 09:01:17;;;;;;;4.13;1.10;;;19.40;99.90;;;;;;5059637;28;20053;-82
2021/08/24 09:03:58;;;;;;;5.68;0.80;;;19.50;99.90;;;;;;5069555;28;20041;-73
2021/08/24 09:06:27;;;;;;;1.55;1.02;;;19.60;99.90;;;;;;5063317;28;20156;-77
2021/08/24 09:08:55;;;;;;;4.43;0.98;;;19.60;99.90;;;;;;5063621;28;20104;-75
2021/08/24 09:11:29;;;;;;;1.40;0.70;;;19.60;99.90;;;;;;5060538;28;20035;-79
2021/08/24 09:14:25;;;;;;;4.05;0.90;;;19.80;99.90;;;;;;5058870;28;20037;-79
2021/08/24 09:17:09;;;;;;;0.98;0.65;;;19.90;99.90;;;;;;5064622;28;20050;-80
2021/08/24 09:19:47;;;;;;;1.42;0.73;;;20.00;99.90;;;;;;5065198;28;20025;-78
2021/08/24 09:22:15;;;;;;;2.65;0.93;;;20.00;99.90;;;;;;5044492;28;20068;-78
2021/08/24 09:24:41;;;;;;;1.83;0.77;;;20.10;99.90;;;;;;5043249;28;20068;-76
2021/08/24 09:27:20;;;;;;;2.40;0.93;;;20.10;99.90;;;;;;5043690;28;20029;-80
2021/08/24 09:29:49;;;;;;;0.85;0.60;;;20.20;99.90;;;;;;5043107;28;20071;-77
2021/08/24 09:32:26;;;;;;;6.03;1.50;;;20.30;99.90;;;;;;5052613;28;20390;-81
2021/08/24 09:35:20;;;;;;;1.17;0.70;;;20.20;99.90;;;;;;5063643;28;20039;-77
2021/08/24 09:37:46;;;;;;;1.35;0.50;;;20.30;99.90;;;;;;5078335;28;20037;-77
2021/08/24 09:40:12;;;;;;;3.95;0.95;;;20.40;99.90;;;;;;5063329;28;20033;-78
2021/08/24 09:42:45;;;;;;;2.28;0.90;;;20.40;99.90;;;;;;5063854;28;20060;-76
2021/08/24 09:45:20;;;;;;;1.83;0.90;;;20.50;99.90;;;;;;5063760;28;20025;-78
2021/08/24 09:47:58;;;;;;;1.65;0.80;;;20.50;99.90;;;;;;5062756;28;20059;-78
2021/08/24 09:50:33;;;;;;;1.67;0.80;;;20.60;99.90;;;;;;5063580;28;20044;-74
2021/08/24 09:53:01;;;;;;;1.10;0.60;;;20.70;99.90;;;;;;5047296;28;20029;-78
2021/08/24 09:55:32;;;;;;;2.20;1.00;;;20.80;99.90;;;;;;5063266;28;20029;-78
2021/08/24 09:58:02;;;;;;;8.57;1.20;;;20.90;99.90;;;;;;5063037;28;20029;-71
2021/08/24 10:00:55;;;;;;;6.45;0.93;;;20.90;99.90;;;;;;5063234;28;20029;-76
2021/08/24 10:03:38;;;;;;;3.15;0.95;;;21.00;99.90;;;;;;5061985;28;20049;-80
2021/08/24 10:06:28;;;;;;;1.15;0.60;;;21.10;99.90;;;;;;5063423;28;20025;-80
2021/08/24 10:09:05;;;;;;;1.27;0.75;;;21.20;99.90;;;;;;5078804;28;20025;-73
2021/08/24 10:11:33;;;;;;;3.40;1.20;;;21.20;99.90;;;;;;5079533;28;20033;-75
2021/08/24 10:14:25;;;;;;;2.08;0.90;;;21.20;99.90;;;;;;5067666;28;20040;-79
2021/08/24 10:16:56;;;;;;;2.20;1.10;;;21.20;99.90;;;;;;5066060;28;20076;-74
2021/08/24 10:19:40;;;;;;;2.63;0.90;;;21.20;99.90;;;;;;5078726;28;20021;-77
2021/08/24 10:22:16;;;;;;;1.42;0.80;;;21.30;99.90;;;;;;5064284;28;20041;-74
2021/08/24 10:25:02;;;;;;;2.30;0.70;;;21.50;99.90;;;;;;5063495;28;20124;-77
2021/08/24 10:27:37;;;;;;;2.97;1.05;;;21.60;99.90;;;;;;5051124;28;20025;-78
2021/08/24 10:30:11;;;;;;;5.65;1.20;;;21.80;99.90;;;;;;5047249;28;20017;-75
2021/08/24 10:32:46;;;;;;;4.25;1.17;;;21.90;99.90;;;;;;5057077;28;20040;-75
2021/08/24 10:35:25;;;;;;;2.67;0.82;;;21.90;99.90;;;;;;5060882;28;20029;-76
2021/08/24 10:37:53;;;;;;;1.67;0.82;;;21.90;99.90;;;;;;5066613;28;21897;-75
2021/08/24 10:40:31;;;;;;;2.08;1.08;;;21.90;99.90;;;;;;5062690;28;20031;-76
2021/08/24 10:43:05;;;;;;;2.67;0.80;;;21.90;99.90;;;;;;5064145;28;20036;-81
2021/08/24 10:45:59;;;;;;;3.38;1.00;;;22.00;99.90;;;;;;5064823;28;20021;-75
2021/08/24 10:48:25;;;;;;;2.10;1.17;;;22.10;99.90;;;;;;5063291;28;20663;-78
2021/08/24 10:51:19;;;;;;;3.22;1.08;;;22.10;99.90;;;;;;5064502;28;20072;-72
2021/08/24 10:54:25;;;;;;;1.70;0.90;;;22.20;99.90;;;;;;5065785;28;20055;-79
2021/08/24 10:57:22;;;;;;;1.38;0.80;;;22.40;99.90;;;;;;5032477;28;20331;-77
2021/08/24 11:00:06;;;;;;;1.17;0.70;;;22.50;99.90;;;;;;5081552;28;20067;-77
2021/08/24 11:02:31;;;;;;;5.10;1.38;;;22.60;99.90;;;;;;5066120;28;20037;-77
2021/08/24 11:05:15;;;;;;;1.35;0.88;;;22.70;99.90;;;;;;5055467;28;20033;-74
2021/08/24 11:07:50;;;;;;;2.53;1.27;;;22.80;99.90;;;;;;5048535;28;20029;-77
2021/08/24 11:10:16;;;;;;;2.38;1.27;;;22.90;99.90;;;;;;5053621;28;20029;-76
2021/08/24 11:13:14;;;;;;;1.95;0.88;;;23.00;99.90;;;;;;5081750;28;20029;-80
2021/08/24 11:15:48;;;;;;;3.00;1.55;;;23.00;99.90;;;;;;5065820;28;20036;-80
2021/08/24 11:18:26;;;;;;;3.45;0.80;;;23.20;99.90;;;;;;5064351;28;20072;-77
2021/08/24 11:20:54;;;;;;;1.15;0.82;;;23.40;99.90;;;;;;5065448;28;20044;-78
2021/08/24 11:23:26;;;;;;;2.53;0.75;;;23.50;99.90;;;;;;5079247;28;20118;-81
2021/08/24 11:25:57;;;;;;;3.13;1.10;;;23.50;99.90;;;;;;5080450;28;20029;-80
2021/08/24 11:29:18;;;;;;;2.20;1.00;;;23.60;99.90;;;;;;5080119;28;20028;-77
2021/08/24 11:31:52;;;;;;;1.80;0.88;;;23.60;99.90;;;;;;5080301;28;20037;-78
2021/08/24 11:34:32;;;;;;;1.92;1.00;;;23.60;99.90;;;;;;5064861;28;20056;-79
2021/08/24 11:37:12;;;;;;;3.13;1.00;;;23.70;99.90;;;;;;5063420;28;20048;-77
2021/08/24 11:39:45;;;;;;;1.80;0.88;;;23.70;99.90;;;;;;5061140;28;20029;-75
2021/08/24 11:42:26;;;;;;;1.67;0.70;;;23.80;99.90;;;;;;5062955;28;20052;-75
2021/08/24 11:44:56;;;;;;;2.75;1.20;;;23.80;99.90;;;;;;5079940;28;20078;-76
2021/08/24 11:47:40;;;;;;;1.20;0.70;;;23.80;99.90;;;;;;5045812;28;20021;-74
2021/08/24 11:50:22;;;;;;;4.30;1.10;;;23.90;99.90;;;;;;5044725;28;20025;-77
2021/08/24 11:53:02;;;;;;;2.25;1.13;;;23.90;99.90;;;;;;5043120;28;20064;-76
2021/08/24 11:55:38;;;;;;;2.85;0.77;;;24.10;99.90;;;;;;5049086;28;20031;-76
2021/08/24 11:58:25;;;;;;;1.95;0.88;;;24.20;99.90;;;;;;5055645;28;20385;-78
2021/08/24 12:00:57;;;;;;;1.92;0.88;;;24.30;99.90;;;;;;5064701;28;20029;-78
2021/08/24 12:03:23;;;;;;;1.58;1.02;;;24.40;99.90;;;;;;5065561;28;20037;-75
2021/08/24 12:06:15;;;;;;;1.65;0.93;;;24.50;99.90;;;;;;5080572;28;20033;-71
2021/08/24 12:08:45;;;;;;;1.40;0.88;;;24.50;99.90;;;;;;5065488;28;20426;-76
2021/08/24 12:11:21;;;;;;;2.83;1.08;;;24.60;99.90;;;;;;5064670;28;20024;-74
2021/08/24 12:13:55;;;;;;;2.13;0.90;;;24.60;99.90;;;;;;5065244;28;20075;-77
2021/08/24 12:16:25;;;;;;;1.35;0.93;;;24.60;99.90;;;;;;5064346;28;20024;-75
2021/08/24 12:18:57;;;;;;;1.73;1.00;;;24.70;99.90;;;;;;5080578;28;20028;-72
2021/08/24 12:21:28;;;;;;;5.55;1.27;;;24.80;99.90;;;;;;5063236;28;20619;-74
2021/08/24 12:23:55;;;;;;;2.67;0.85;;;25.00;99.90;;;;;;5063120;28;20067;-77
2021/08/24 12:26:32;;;;;;;1.80;0.85;;;25.10;99.90;;;;;;5064108;28;20040;-75
2021/08/24 12:29:10;;;;;;;2.20;0.88;;;25.20;99.90;;;;;;5079523;28;20025;-77
2021/08/24 12:31:46;;;;;;;2.22;0.80;;;25.30;99.90;;;;;;5064269;28;20033;-77
2021/08/24 12:34:34;;;;;;;1.70;1.00;;;25.40;99.90;;;;;;5079104;28;20059;-74
2021/08/24 12:37:23;;;;;;;6.43;1.40;;;25.50;99.90;;;;;;5064376;28;20025;-73
2021/08/24 12:39:53;;;;;;;1.85;0.90;;;25.10;99.90;;;;;;5078778;28;20056;-75
2021/08/24 12:42:22;;;;;;;3.38;1.10;;;24.70;99.90;;;;;;5063142;28;20045;-76
2021/08/24 12:45:24;;;;;;;2.83;1.20;;;24.50;99.90;;;;;;5064383;28;20108;-76
2021/08/24 12:48:14;;;;;;;3.38;1.20;;;24.60;99.90;;;;;;5064852;28;20051;-75
2021/08/24 12:50:40;;;;;;;1.77;0.98;;;24.50;99.90;;;;;;5080509;28;20029;-75
2021/08/24 12:53:27;;;;;;;1.67;0.90;;;24.30;99.90;;;;;;5065091;28;20028;-77
2021/08/24 12:56:24;;;;;;;1.58;0.95;;;24.40;99.90;;;;;;5064673;28;20033;-75
2021/08/24 12:58:50;;;;;;;2.35;0.95;;;24.70;99.90;;;;;;5080084;28;20032;-78
2021/08/24 13:01:22;;;;;;;1.27;0.90;;;25.30;99.90;;;;;;5064217;28;20056;-78
2021/08/24 13:04:13;;;;;;;2.22;1.10;;;25.70;99.90;;;;;;5064497;28;20051;-76
2021/08/24 13:06:43;;;;;;;2.13;0.93;;;26.10;99.90;;;;;;5064541;28;20033;-76
2021/08/24 13:09:39;;;;;;;1.20;0.88;;;26.50;99.90;;;;;;5064700;28;20048;-77
2021/08/24 13:12:19;;;;;;;2.20;0.90;;;26.70;99.90;;;;;;5080024;28;20035;-76
2021/08/24 13:14:52;;;;;;;1.48;0.88;;;26.60;99.90;;;;;;5064299;28;20029;-77
2021/08/24 13:17:22;;;;;;;4.47;1.00;;;26.50;99.90;;;;;;5079633;28;20064;-77